| time (UTC) | temp F | wind direction | speed knots | gust knots | rain 1hr in | rain 24hr in | rain mn in | humidity % | barometer mb |
| 20260510150146 | 83 | 129 | 0.0 | 1.7 | 0.00 | 0.00 | 0.00 | 81 | 1017.6 |
| 20260510145643 | 81 | 161 | 0.0 | 0.9 | 0.00 | 0.00 | 0.00 | 83 | 1017.6 |
| 20260510145140 | 80 | 180 | 0.0 | 1.7 | 0.00 | 0.00 | 0.00 | 86 | 1017.7 |
| 20260510144635 | 80 | 27 | 0.0 | 2.6 | 0.00 | 0.00 | 0.00 | 85 | 1017.4 |
| 20260510144132 | 79 | 245 | 0.9 | 2.6 | 0.00 | 0.00 | 0.00 | 85 | 1017.6 |
| 20260510143627 | 79 | 279 | 0.0 | 0.0 | 0.00 | 0.00 | 0.00 | 88 | 1017.6 |
| 20260510143124 | 79 | 280 | 0.0 | 1.7 | 0.00 | 0.00 | 0.00 | 87 | 1017.6 |
| 20260510142621 | 80 | 308 | 0.9 | 2.6 | 0.00 | 0.00 | 0.00 | 85 | 1017.7 |
| 20260510142118 | 79 | 133 | 0.0 | 0.0 | 0.00 | 0.00 | 0.00 | 89 | 1017.5 |
| 20260510141614 | 78 | 79 | 0.9 | 0.9 | 0.00 | 0.00 | 0.00 | 90 | 1017.4 |
| 20260510141113 | 77 | 252 | 1.7 | 1.7 | 0.00 | 0.00 | 0.00 | 90 | 1017.2 |
| 20260510140609 | 76 | 264 | 0.9 | 1.7 | 0.00 | 0.00 | 0.00 | 91 | 1017.2 |
| 20260510140108 | 76 | 254 | 0.0 | 1.7 | 0.00 | 0.00 | 0.00 | 91 | 1017.4 |
| 20260510135604 | 75 | 249 | 0.0 | 0.9 | 0.00 | 0.00 | 0.00 | 93 | 1017.3 |
| 20260510135100 | 75 | 162 | 0.0 | 0.0 | 0.00 | 0.00 | 0.00 | 94 | 1017.4 |
| 20260510134557 | 75 | 140 | 0.0 | 0.9 | 0.00 | 0.00 | 0.00 | 96 | 1017.6 |
| 20260510134054 | 74 | 180 | 0.0 | 0.9 | 0.00 | 0.00 | 0.00 | 97 | 1017.1 |
| 20260510133550 | 74 | 194 | 0.0 | 0.9 | 0.00 | 0.00 | 0.00 | 98 | 1017.3 |
| 20260510133046 | 74 | 305 | 0.9 | 1.7 | 0.00 | 0.00 | 0.00 | 98 | 1017.4 |
| 20260510132543 | 74 | 186 | 0.0 | 0.0 | 0.00 | 0.00 | 0.00 | 98 | 1017.3 |
| 20260510132040 | 73 | 207 | 0.0 | 0.0 | 0.00 | 0.00 | 0.00 | 99 | 1017.1 |
| 20260510131538 | 73 | 88 | 0.0 | 0.0 | 0.00 | 0.00 | 0.00 | 99 | 1017.2 |
| 20260510131035 | 73 | 118 | 0.0 | 0.0 | 0.00 | 0.00 | 0.00 | 99 | 1017.1 |
| 20260510130531 | 72 | 246 | 0.0 | 0.0 | 0.00 | 0.00 | 0.00 | 99 | 1017.4 |
| 20260510130029 | 72 | 113 | 0.0 | 0.0 | 0.00 | 0.00 | 0.00 | 99 | 1017.3 |
| 20260510125525 | 72 | 122 | 0.0 | 0.0 | 0.00 | 0.00 | 0.00 | 99 | 1017.0 |
| 20260510125021 | 72 | 122 | 0.0 | 0.0 | 0.00 | 0.00 | 0.00 | 99 | 1017.0 |
| 20260510124518 | 72 | 119 | 0.0 | 0.0 | 0.00 | 0.00 | 0.00 | 99 | 1017.3 |
| 20260510124015 | 72 | 119 | 0.0 | 0.0 | 0.00 | 0.00 | 0.00 | 99 | 1017.0 |
| 20260510123510 | 71 | 119 | 0.0 | 0.0 | 0.00 | 0.00 | 0.00 | 99 | 1016.8 |
| 20260510123006 | 71 | 119 | 0.0 | 0.0 | 0.00 | 0.00 | 0.00 | 99 | 1016.8 |
| 20260510122502 | 71 | 119 | 0.0 | 0.0 | 0.00 | 0.00 | 0.00 | 99 | 1017.0 |
| 20260510121958 | 71 | 119 | 0.0 | 0.0 | 0.00 | 0.00 | 0.00 | 99 | 1016.6 |
| 20260510121455 | 70 | 119 | 0.0 | 0.0 | 0.00 | 0.00 | 0.00 | 99 | 1016.5 |
| 20260510120953 | 70 | 119 | 0.0 | 0.0 | 0.00 | 0.00 | 0.00 | 99 | 1016.4 |
| 20260510120450 | 70 | 119 | 0.0 | 0.0 | 0.00 | 0.00 | 0.00 | 99 | 1016.4 |
| 20260510115945 | 70 | 119 | 0.0 | 0.0 | 0.00 | 0.00 | 0.00 | 99 | 1016.3 |
| 20260510115443 | 69 | 119 | 0.0 | 0.0 | 0.00 | 0.00 | 0.00 | 99 | 1016.4 |
| 20260510114939 | 69 | 119 | 0.0 | 0.0 | 0.00 | 0.00 | 0.00 | 99 | 1016.3 |
| 20260510114436 | 69 | 132 | 0.0 | 0.0 | 0.00 | 0.00 | 0.00 | 99 | 1016.3 |
| 20260510113931 | 69 | 132 | 0.0 | 0.0 | 0.00 | 0.00 | 0.00 | 99 | 1016.1 |
| 20260510113427 | 69 | 132 | 0.0 | 0.0 | 0.00 | 0.00 | 0.00 | 99 | 1016.0 |
| 20260510112925 | 69 | 178 | 0.0 | 0.0 | 0.00 | 0.00 | 0.00 | 99 | 1015.9 |
| 20260510112422 | 69 | 180 | 0.0 | 0.0 | 0.00 | 0.00 | 0.00 | 98 | 1015.9 |
| 20260510111918 | 69 | 117 | 0.0 | 0.0 | 0.00 | 0.00 | 0.00 | 99 | 1015.9 |
| 20260510111414 | 69 | 117 | 0.0 | 0.0 | 0.00 | 0.00 | 0.00 | 98 | 1015.7 |
| 20260510110910 | 69 | 117 | 0.0 | 0.0 | 0.00 | 0.00 | 0.00 | 98 | 1015.7 |
| 20260510110406 | 69 | 117 | 0.0 | 0.0 | 0.00 | 0.00 | 0.00 | 98 | 1015.5 |
| 20260510105903 | 68 | 117 | 0.0 | 0.0 | 0.00 | 0.00 | 0.00 | 98 | 1015.6 |
| 20260510105402 | 69 | 117 | 0.0 | 0.0 | 0.00 | 0.00 | 0.00 | 98 | 1015.5 |
| 20260510104858 | 68 | 117 | 0.0 | 0.0 | 0.00 | 0.00 | 0.00 | 98 | 1015.3 |
| 20260510104356 | 69 | 117 | 0.0 | 0.0 | 0.00 | 0.00 | 0.00 | 98 | 1015.3 |
| 20260510103852 | 69 | 85 | 0.0 | 0.0 | 0.00 | 0.00 | 0.00 | 98 | 1015.3 |
| 20260510103349 | 69 | 85 | 0.0 | 0.0 | 0.00 | 0.00 | 0.00 | 98 | 1015.1 |
| 20260510102845 | 69 | 85 | 0.0 | 0.0 | 0.00 | 0.00 | 0.00 | 98 | 1015.3 |
| 20260510102340 | 69 | 85 | 0.0 | 0.0 | 0.00 | 0.00 | 0.00 | 98 | 1015.0 |
| 20260510101838 | 69 | 85 | 0.0 | 0.0 | 0.00 | 0.00 | 0.00 | 98 | 1015.1 |
| 20260510101336 | 69 | 85 | 0.0 | 0.0 | 0.00 | 0.00 | 0.00 | 98 | 1014.9 |
| 20260510100832 | 69 | 85 | 0.0 | 0.0 | 0.00 | 0.00 | 0.00 | 98 | 1015.0 |
| 20260510100330 | 69 | 85 | 0.0 | 0.0 | 0.00 | 0.00 | 0.00 | 98 | 1014.9 |
| 20260510095826 | 68 | 85 | 0.0 | 0.0 | 0.00 | 0.00 | 0.00 | 98 | 1014.7 |
| 20260510095321 | 68 | 85 | 0.0 | 0.0 | 0.00 | 0.00 | 0.00 | 98 | 1014.6 |
| 20260510094820 | 68 | 85 | 0.0 | 0.0 | 0.00 | 0.00 | 0.00 | 98 | 1014.7 |
| 20260510094316 | 68 | 85 | 0.0 | 0.0 | 0.00 | 0.00 | 0.00 | 98 | 1014.7 |
| 20260510093812 | 68 | 85 | 0.0 | 0.0 | 0.00 | 0.00 | 0.00 | 98 | 1014.8 |
| 20260510093309 | 68 | 85 | 0.0 | 0.0 | 0.00 | 0.00 | 0.00 | 98 | 1014.7 |
| 20260510092805 | 68 | 85 | 0.0 | 0.0 | 0.00 | 0.00 | 0.00 | 98 | 1015.0 |
| 20260510092301 | 68 | 85 | 0.0 | 0.0 | 0.00 | 0.00 | 0.00 | 98 | 1014.4 |
| 20260510091756 | 68 | 80 | 0.0 | 0.0 | 0.00 | 0.00 | 0.00 | 98 | 1014.3 |
| 20260510091254 | 68 | 80 | 0.0 | 0.0 | 0.00 | 0.00 | 0.00 | 98 | 1014.5 |
| 20260510090750 | 68 | 83 | 0.0 | 0.0 | 0.00 | 0.00 | 0.00 | 98 | 1014.6 |
| 20260510090248 | 68 | 59 | 0.0 | 0.0 | 0.00 | 0.00 | 0.00 | 98 | 1014.5 |
| 20260510085743 | 68 | 59 | 0.0 | 0.0 | 0.00 | 0.00 | 0.00 | 98 | 1014.3 |
| 20260510085237 | 68 | 59 | 0.0 | 0.0 | 0.00 | 0.00 | 0.00 | 98 | 1014.3 |
| 20260510084734 | 68 | 59 | 0.0 | 0.0 | 0.00 | 0.00 | 0.00 | 98 | 1014.2 |
| 20260510084231 | 68 | 59 | 0.0 | 0.0 | 0.00 | 0.00 | 0.00 | 98 | 1014.2 |
| 20260510083727 | 68 | 69 | 0.0 | 0.0 | 0.00 | 0.00 | 0.00 | 98 | 1014.0 |
| 20260510083224 | 68 | 69 | 0.0 | 0.0 | 0.00 | 0.00 | 0.00 | 98 | 1013.7 |
| 20260510082720 | 68 | 69 | 0.0 | 0.0 | 0.00 | 0.00 | 0.00 | 98 | 1014.2 |
| 20260510082217 | 68 | 69 | 0.0 | 0.0 | 0.00 | 0.00 | 0.00 | 98 | 1013.9 |
| 20260510081716 | 68 | 69 | 0.0 | 0.0 | 0.00 | 0.00 | 0.00 | 98 | 1014.1 |
| 20260510081213 | 68 | 69 | 0.0 | 0.0 | 0.00 | 0.00 | 0.00 | 98 | 1014.2 |
| 20260510080713 | 68 | 69 | 0.0 | 0.0 | 0.00 | 0.00 | 0.00 | 98 | 1014.0 |
| 20260510080209 | 68 | 69 | 0.0 | 0.0 | 0.00 | 0.00 | 0.00 | 98 | 1013.9 |
| 20260510075706 | 68 | 69 | 0.0 | 0.0 | 0.00 | 0.00 | 0.00 | 98 | 1013.8 |
| 20260510075204 | 68 | 69 | 0.0 | 0.0 | 0.00 | 0.00 | 0.00 | 98 | 1013.8 |
| 20260510074700 | 68 | 69 | 0.0 | 0.0 | 0.00 | 0.00 | 0.00 | 98 | 1014.1 |
| 20260510074156 | 68 | 69 | 0.0 | 0.0 | 0.00 | 0.00 | 0.00 | 98 | 1013.9 |
| 20260510073653 | 68 | 69 | 0.0 | 0.0 | 0.00 | 0.00 | 0.00 | 98 | 1014.3 |
| 20260510073149 | 68 | 69 | 0.0 | 0.0 | 0.00 | 0.00 | 0.00 | 98 | 1014.0 |
| 20260510072645 | 68 | 70 | 0.0 | 0.0 | 0.00 | 0.00 | 0.00 | 98 | 1014.1 |
| 20260510072142 | 68 | 70 | 0.0 | 0.0 | 0.00 | 0.00 | 0.00 | 98 | 1014.1 |
| 20260510071638 | 68 | 70 | 0.0 | 0.0 | 0.00 | 0.00 | 0.00 | 98 | 1014.0 |
| 20260510071135 | 68 | 70 | 0.0 | 0.0 | 0.00 | 0.00 | 0.00 | 98 | 1014.3 |
| 20260510070633 | 68 | 70 | 0.0 | 0.0 | 0.00 | 0.00 | 0.00 | 98 | 1014.2 |
| 20260510070130 | 68 | 70 | 0.0 | 0.0 | 0.00 | 0.00 | 0.00 | 98 | 1013.9 |
| 20260510065626 | 68 | 70 | 0.0 | 0.0 | 0.00 | 0.00 | 0.00 | 98 | 1013.9 |
| 20260510065122 | 68 | 70 | 0.0 | 0.0 | 0.00 | 0.00 | 0.00 | 98 | 1013.9 |
| 20260510064618 | 69 | 70 | 0.0 | 0.0 | 0.00 | 0.00 | 0.00 | 98 | 1013.8 |
| 20260510064115 | 69 | 70 | 0.0 | 0.0 | 0.00 | 0.00 | 0.00 | 98 | 1014.2 |
| 20260510063612 | 69 | 70 | 0.0 | 0.0 | 0.00 | 0.00 | 0.00 | 98 | 1014.2 |
| 20260510063109 | 69 | 70 | 0.0 | 0.0 | 0.00 | 0.00 | 0.00 | 98 | 1014.2 |
| 20260510062605 | 69 | 77 | 0.0 | 0.0 | 0.00 | 0.00 | 0.00 | 98 | 1014.2 |
| 20260510062101 | 69 | 88 | 0.0 | 0.0 | 0.00 | 0.00 | 0.00 | 98 | 1014.0 |
| 20260510061557 | 69 | 88 | 0.0 | 0.0 | 0.00 | 0.00 | 0.00 | 98 | 1014.4 |
| 20260510061054 | 69 | 96 | 0.0 | 0.0 | 0.00 | 0.00 | 0.00 | 98 | 1014.3 |
| 20260510060550 | 69 | 129 | 0.0 | 0.0 | 0.00 | 0.00 | 0.00 | 98 | 1014.5 |
| 20260510060046 | 69 | 125 | 0.0 | 0.0 | 0.00 | 0.00 | 0.00 | 98 | 1014.7 |
| 20260510055542 | 69 | 122 | 0.0 | 0.0 | 0.00 | 0.00 | 0.00 | 98 | 1014.7 |
| 20260510055041 | 69 | 119 | 0.0 | 0.0 | 0.00 | 0.00 | 0.00 | 98 | 1014.5 |
| 20260510054536 | 69 | 104 | 0.0 | 0.0 | 0.00 | 0.00 | 0.00 | 98 | 1014.5 |
| 20260510054031 | 69 | 105 | 0.0 | 0.0 | 0.00 | 0.00 | 0.00 | 98 | 1014.6 |
| 20260510053526 | 69 | 172 | 0.0 | 0.0 | 0.00 | 0.00 | 0.00 | 98 | 1014.7 |
| 20260510053024 | 69 | 112 | 0.0 | 0.0 | 0.00 | 0.00 | 0.00 | 98 | 1014.7 |
| 20260510052520 | 69 | 174 | 0.0 | 0.9 | 0.00 | 0.00 | 0.00 | 98 | 1014.7 |
| 20260510052016 | 69 | 178 | 0.0 | 0.0 | 0.00 | 0.00 | 0.00 | 98 | 1014.6 |
| 20260510051511 | 69 | 85 | 0.9 | 0.9 | 0.00 | 0.00 | 0.00 | 98 | 1014.8 |
| 20260510051008 | 69 | 113 | 0.0 | 0.0 | 0.00 | 0.00 | 0.00 | 98 | 1014.8 |
| 20260510050506 | 69 | 99 | 0.0 | 0.9 | 0.00 | 0.00 | 0.00 | 98 | 1014.9 |
| 20260510050003 | 69 | 128 | 0.0 | 0.9 | 0.00 | 0.00 | 0.00 | 98 | 1014.7 |
| 20260510045500 | 69 | 108 | 0.0 | 0.0 | 0.00 | 0.00 | 0.00 | 98 | 1015.2 |
| 20260510044956 | 69 | 113 | 0.0 | 0.9 | 0.00 | 0.00 | 0.00 | 98 | 1015.1 |
| 20260510044453 | 69 | 84 | 0.0 | 0.0 | 0.00 | 0.00 | 0.00 | 98 | 1015.3 |
| 20260510043950 | 69 | 99 | 0.0 | 0.0 | 0.00 | 0.00 | 0.00 | 98 | 1015.6 |
| 20260510043445 | 69 | 100 | 0.0 | 0.0 | 0.00 | 0.00 | 0.00 | 98 | 1015.5 |
| 20260510042944 | 69 | 89 | 0.0 | 0.0 | 0.00 | 0.00 | 0.00 | 98 | 1015.3 |
| 20260510042440 | 69 | 89 | 0.0 | 0.0 | 0.00 | 0.00 | 0.00 | 98 | 1015.8 |
| 20260510041936 | 69 | 93 | 0.0 | 0.0 | 0.00 | 0.00 | 0.00 | 98 | 1015.6 |
| 20260510041433 | 69 | 93 | 0.0 | 0.0 | 0.00 | 0.00 | 0.00 | 98 | 1015.9 |
| 20260510040931 | 69 | 93 | 0.0 | 0.0 | 0.00 | 0.00 | 0.00 | 98 | 1015.9 |
| 20260510040427 | 69 | 104 | 0.0 | 0.0 | 0.00 | 0.00 | 0.00 | 98 | 1015.7 |
| 20260510035923 | 68 | 105 | 0.0 | 0.0 | 0.00 | 0.47 | 0.47 | 98 | 1015.9 |
| 20260510035419 | 68 | 105 | 0.0 | 0.0 | 0.00 | 0.47 | 0.47 | 98 | 1015.8 |
| 20260510034919 | 68 | 105 | 0.0 | 0.0 | 0.00 | 0.47 | 0.47 | 98 | 1016.0 |
| 20260510034418 | 69 | 105 | 0.0 | 0.0 | 0.00 | 0.47 | 0.47 | 98 | 1016.0 |
| 20260510033914 | 69 | 105 | 0.0 | 0.0 | 0.00 | 0.47 | 0.47 | 98 | 1015.8 |
| 20260510033410 | 69 | 108 | 0.0 | 0.0 | 0.00 | 0.47 | 0.47 | 97 | 1015.7 |
| 20260510032907 | 69 | 108 | 0.0 | 0.0 | 0.00 | 0.47 | 0.47 | 98 | 1015.7 |
| 20260510032404 | 69 | 108 | 0.0 | 0.0 | 0.00 | 0.47 | 0.47 | 97 | 1015.7 |
| 20260510031859 | 69 | 108 | 0.0 | 0.0 | 0.00 | 0.47 | 0.47 | 97 | 1015.8 |
| 20260510031355 | 69 | 108 | 0.0 | 0.0 | 0.00 | 0.47 | 0.47 | 97 | 1015.9 |
| 20260510030854 | 69 | 108 | 0.0 | 0.0 | 0.00 | 0.47 | 0.47 | 97 | 1016.1 |
| 20260510030351 | 69 | 108 | 0.0 | 0.0 | 0.00 | 0.47 | 0.47 | 97 | 1015.9 |
| 20260510025849 | 69 | 108 | 0.0 | 0.0 | 0.00 | 0.47 | 0.47 | 97 | 1015.6 |
| 20260510025346 | 69 | 108 | 0.0 | 0.0 | 0.00 | 0.47 | 0.47 | 97 | 1015.7 |
| 20260510024843 | 69 | 108 | 0.0 | 0.0 | 0.00 | 0.47 | 0.47 | 97 | 1015.5 |
| 20260510024340 | 69 | 108 | 0.0 | 0.0 | 0.00 | 0.47 | 0.47 | 97 | 1015.8 |
| 20260510023836 | 69 | 83 | 0.0 | 0.0 | 0.00 | 0.47 | 0.47 | 97 | 1015.8 |
| 20260510023332 | 69 | 83 | 0.0 | 0.0 | 0.00 | 0.47 | 0.47 | 97 | 1015.3 |
| 20260510022830 | 69 | 83 | 0.0 | 0.0 | 0.00 | 0.47 | 0.47 | 97 | 1015.6 |
| 20260510022329 | 69 | 83 | 0.0 | 0.0 | 0.00 | 0.47 | 0.47 | 97 | 1015.7 |
| 20260510021829 | 69 | 83 | 0.0 | 0.0 | 0.00 | 0.47 | 0.47 | 97 | 1015.4 |
| 20260510021327 | 69 | 83 | 0.0 | 0.0 | 0.00 | 0.47 | 0.47 | 97 | 1015.1 |
| 20260510020823 | 69 | 83 | 0.0 | 0.0 | 0.00 | 0.47 | 0.47 | 97 | 1015.1 |
| 20260510020323 | 69 | 83 | 0.0 | 0.0 | 0.00 | 0.47 | 0.47 | 97 | 1015.2 |
| 20260510015819 | 69 | 82 | 0.0 | 0.0 | 0.00 | 0.47 | 0.47 | 97 | 1014.9 |
| 20260510015315 | 69 | 221 | 0.0 | 0.0 | 0.00 | 0.47 | 0.47 | 97 | 1015.2 |
| 20260510014816 | 69 | 221 | 0.0 | 0.0 | 0.00 | 0.47 | 0.47 | 97 | 1014.7 |
| 20260510014313 | 69 | 234 | 0.0 | 0.0 | 0.00 | 0.47 | 0.47 | 97 | 1014.4 |
| 20260510013809 | 69 | 88 | 0.0 | 0.0 | 0.00 | 0.47 | 0.47 | 97 | 1014.3 |
| 20260510013305 | 69 | 153 | 0.0 | 0.0 | 0.00 | 0.47 | 0.47 | 97 | 1014.8 |
| 20260510012800 | 69 | 253 | 0.0 | 0.0 | 0.00 | 0.47 | 0.47 | 97 | 1014.7 |
| 20260510012255 | 69 | 253 | 0.0 | 0.0 | 0.00 | 0.47 | 0.47 | 97 | 1014.3 |
| 20260510011754 | 69 | 253 | 0.0 | 0.0 | 0.00 | 0.47 | 0.47 | 97 | 1014.3 |
| 20260510011250 | 69 | 253 | 0.0 | 0.0 | 0.00 | 0.47 | 0.47 | 97 | 1014.3 |
| 20260510010748 | 69 | 255 | 0.0 | 0.0 | 0.00 | 0.47 | 0.47 | 97 | 1014.3 |
| 20260510010244 | 69 | 255 | 0.0 | 0.0 | 0.00 | 0.47 | 0.47 | 97 | 1014.4 |
| 20260510005741 | 69 | 255 | 0.0 | 0.0 | 0.00 | 0.47 | 0.47 | 97 | 1014.6 |
| 20260510005237 | 69 | 107 | 0.0 | 0.0 | 0.00 | 0.47 | 0.47 | 97 | 1014.3 |
| 20260510004735 | 69 | 107 | 0.0 | 0.0 | 0.00 | 0.47 | 0.47 | 97 | 1014.2 |
| 20260510004233 | 69 | 86 | 0.0 | 0.0 | 0.00 | 0.47 | 0.47 | 97 | 1014.0 |
| 20260510003730 | 69 | 86 | 0.0 | 0.0 | 0.00 | 0.47 | 0.47 | 97 | 1014.0 |
| 20260510003226 | 69 | 86 | 0.0 | 0.0 | 0.00 | 0.47 | 0.47 | 97 | 1013.7 |
| 20260510002725 | 69 | 86 | 0.0 | 0.0 | 0.00 | 0.47 | 0.47 | 97 | 1014.0 |
| 20260510002223 | 69 | 86 | 0.0 | 0.0 | 0.00 | 0.47 | 0.47 | 97 | 1014.0 |
| 20260510001719 | 69 | 166 | 0.0 | 0.0 | 0.00 | 0.47 | 0.47 | 97 | 1014.5 |
| 20260510001218 | 69 | 166 | 0.0 | 0.0 | 0.00 | 0.47 | 0.47 | 97 | 1014.3 |
| 20260510000714 | 69 | 77 | 0.0 | 0.0 | 0.05 | 0.47 | 0.47 | 96 | 1014.0 |
| 20260510000211 | 69 | 106 | 0.0 | 0.0 | 0.05 | 0.47 | 0.47 | 96 | 1014.1 |
| 20260509235708 | 69 | 106 | 0.0 | 0.0 | 0.00 | 0.46 | 0.46 | 96 | 1014.3 |
| 20260509235204 | 70 | 119 | 0.0 | 0.0 | 0.00 | 0.46 | 0.46 | 96 | 1014.3 |
| 20260509234700 | 70 | 125 | 0.0 | 0.0 | 0.00 | 0.46 | 0.46 | 96 | 1014.2 |
| 20260509234157 | 70 | 55 | 0.0 | 0.0 | 0.00 | 0.46 | 0.46 | 96 | 1013.8 |
| 20260509233655 | 70 | 85 | 0.0 | 0.0 | 0.00 | 0.46 | 0.46 | 96 | 1014.2 |
| 20260509233153 | 70 | 278 | 0.0 | 0.0 | 0.00 | 0.46 | 0.46 | 96 | 1014.0 |
| 20260509232649 | 70 | 341 | 0.0 | 0.0 | 0.14 | 0.46 | 0.46 | 96 | 1014.2 |
| 20260509232146 | 70 | 8 | 0.0 | 0.9 | 0.19 | 0.46 | 0.46 | 96 | 1014.2 |
| 20260509231642 | 70 | 62 | 0.0 | 0.0 | 0.05 | 0.44 | 0.44 | 96 | 1014.4 |
| 20260509231140 | 70 | 88 | 0.0 | 0.0 | 0.07 | 0.43 | 0.43 | 96 | 1014.5 |
| 20260509230637 | 70 | 51 | 0.0 | 0.0 | 0.12 | 0.43 | 0.43 | 96 | 1014.7 |
| 20260509230134 | 70 | 51 | 0.0 | 0.9 | 0.17 | 0.42 | 0.42 | 96 | 1014.9 |
| 20260509225629 | 70 | 22 | 0.0 | 0.0 | 0.05 | 0.40 | 0.40 | 95 | 1015.1 |
| 20260509225125 | 70 | 53 | 0.0 | 0.0 | 0.12 | 0.39 | 0.39 | 95 | 1014.9 |
| 20260509224620 | 70 | 40 | 0.0 | 0.0 | 0.31 | 0.39 | 0.39 | 95 | 1015.4 |
| 20260509224118 | 71 | 20 | 0.0 | 1.7 | 0.19 | 0.36 | 0.36 | 95 | 1014.8 |
| 20260509223615 | 71 | 323 | 0.0 | 0.9 | 0.12 | 0.34 | 0.34 | 94 | 1015.1 |
| 20260509223112 | 71 | 328 | 0.0 | 0.0 | 0.12 | 0.33 | 0.33 | 94 | 1015.0 |
| 20260509222608 | 71 | 312 | 0.0 | 1.7 | 0.07 | 0.32 | 0.32 | 94 | 1015.0 |
| 20260509222104 | 71 | 296 | 0.0 | 0.0 | 0.00 | 0.31 | 0.31 | 94 | 1014.9 |
| 20260509221600 | 71 | 282 | 0.0 | 0.0 | 0.00 | 0.31 | 0.31 | 94 | 1014.7 |
| 20260509221056 | 72 | 23 | 0.0 | 0.0 | 0.00 | 0.31 | 0.31 | 93 | 1014.6 |
| 20260509220552 | 72 | 126 | 0.0 | 0.0 | 0.05 | 0.31 | 0.31 | 93 | 1014.6 |
| 20260509220048 | 72 | 312 | 0.0 | 0.0 | 0.05 | 0.31 | 0.31 | 93 | 1014.3 |
| 20260509215544 | 72 | 303 | 0.0 | 0.9 | 0.00 | 0.30 | 0.30 | 92 | 1014.4 |
| 20260509215042 | 72 | 304 | 0.9 | 0.9 | 0.00 | 0.30 | 0.30 | 92 | 1014.6 |
| 20260509214539 | 72 | 337 | 0.0 | 0.0 | 0.00 | 0.30 | 0.30 | 92 | 1014.3 |
| 20260509214035 | 72 | 337 | 0.0 | 0.0 | 0.00 | 0.30 | 0.30 | 92 | 1014.3 |
| 20260509213531 | 72 | 283 | 0.0 | 0.9 | 0.00 | 0.30 | 0.30 | 92 | 1014.2 |
| 20260509213028 | 72 | 2 | 0.0 | 0.9 | 0.00 | 0.30 | 0.30 | 93 | 1014.0 |
| 20260509212526 | 72 | 352 | 0.0 | 0.9 | 0.00 | 0.30 | 0.30 | 93 | 1013.8 |
| 20260509212023 | 72 | 29 | 0.0 | 0.0 | 0.00 | 0.30 | 0.30 | 93 | 1014.0 |
| 20260509211518 | 72 | 2 | 0.0 | 0.9 | 0.00 | 0.30 | 0.30 | 93 | 1013.9 |
| 20260509211015 | 72 | 41 | 0.0 | 0.0 | 0.00 | 0.30 | 0.30 | 93 | 1013.9 |
| 20260509210512 | 72 | 309 | 0.0 | 0.0 | 0.00 | 0.30 | 0.30 | 93 | 1014.3 |
| 20260509210008 | 72 | 93 | 0.0 | 0.0 | 0.00 | 0.30 | 0.30 | 93 | 1014.0 |
| 20260509205502 | 72 | 215 | 0.0 | 0.0 | 0.00 | 0.30 | 0.30 | 93 | 1013.8 |
| 20260509204958 | 72 | 343 | 0.0 | 0.0 | 0.00 | 0.30 | 0.30 | 93 | 1014.0 |
| 20260509204454 | 72 | 189 | 0.0 | 0.0 | 0.00 | 0.30 | 0.30 | 94 | 1013.8 |
| 20260509203951 | 72 | 341 | 0.0 | 0.9 | 0.00 | 0.30 | 0.30 | 93 | 1013.9 |
| 20260509203447 | 72 | 12 | 0.0 | 0.9 | 0.00 | 0.30 | 0.30 | 93 | 1013.9 |
| 20260509202945 | 72 | 335 | 0.9 | 1.7 | 0.00 | 0.30 | 0.30 | 92 | 1013.6 |
| 20260509202441 | 73 | 316 | 1.7 | 1.7 | 0.00 | 0.30 | 0.30 | 91 | 1013.7 |
| 20260509201936 | 73 | 32 | 0.0 | 1.7 | 0.00 | 0.30 | 0.30 | 91 | 1013.6 |
| 20260509201431 | 74 | 311 | 1.7 | 3.5 | 0.00 | 0.30 | 0.30 | 92 | 1013.6 |
| 20260509200928 | 75 | 345 | 0.9 | 7.8 | 0.00 | 0.30 | 0.30 | 91 | 1013.5 |
| 20260509200428 | 76 | 21 | 2.6 | 2.6 | 0.00 | 0.30 | 0.30 | 94 | 1013.6 |
| 20260509195925 | 76 | 315 | 0.0 | 1.7 | 0.00 | 0.30 | 0.30 | 94 | 1013.5 |
| 20260509195421 | 76 | 77 | 0.0 | 0.9 | 0.00 | 0.30 | 0.30 | 95 | 1013.6 |
| 20260509194920 | 76 | 59 | 0.0 | 0.9 | 0.00 | 0.30 | 0.30 | 95 | 1013.7 |
| 20260509194417 | 76 | 311 | 0.9 | 1.7 | 0.00 | 0.30 | 0.30 | 95 | 1013.8 |
| 20260509193914 | 76 | 264 | 0.9 | 0.9 | 0.00 | 0.30 | 0.30 | 95 | 1013.7 |
| 20260509193413 | 76 | 9 | 0.9 | 0.9 | 0.00 | 0.30 | 0.30 | 96 | 1013.6 |
| 20260509192909 | 75 | 6 | 0.0 | 0.0 | 0.00 | 0.30 | 0.30 | 96 | 1013.5 |
| 20260509192406 | 75 | 33 | 0.0 | 0.0 | 0.00 | 0.30 | 0.30 | 96 | 1013.6 |
| 20260509191901 | 75 | 66 | 0.0 | 0.0 | 0.00 | 0.30 | 0.30 | 95 | 1013.6 |
| 20260509191357 | 75 | 342 | 0.0 | 0.9 | 0.07 | 0.30 | 0.30 | 96 | 1013.9 |
| 20260509190853 | 75 | 267 | 0.0 | 2.6 | 0.07 | 0.30 | 0.30 | 95 | 1014.0 |
| 20260509190350 | 75 | 105 | 0.0 | 0.0 | 0.35 | 0.29 | 0.29 | 95 | 1013.8 |
| 20260509185848 | 75 | 138 | 0.0 | 0.0 | 0.83 | 0.29 | 0.29 | 94 | 1014.1 |
| 20260509185344 | 75 | 164 | 0.0 | 0.9 | 0.71 | 0.20 | 0.20 | 94 | 1014.3 |
| 20260509184841 | 75 | 165 | 0.0 | 0.0 | 0.31 | 0.13 | 0.13 | 93 | 1014.3 |
| 20260509184338 | 75 | 19 | 0.0 | 0.0 | 0.00 | 0.08 | 0.08 | 93 | 1014.4 |
| 20260509183835 | 75 | 63 | 0.0 | 0.0 | 0.00 | 0.08 | 0.08 | 92 | 1014.0 |
| 20260509183330 | 75 | 343 | 0.0 | 0.0 | 0.00 | 0.08 | 0.08 | 92 | 1014.2 |
| 20260509182826 | 75 | 349 | 0.0 | 0.0 | 0.07 | 0.08 | 0.08 | 92 | 1014.1 |
| 20260509182324 | 75 | 287 | 0.0 | 0.0 | 0.07 | 0.08 | 0.08 | 92 | 1014.1 |
| 20260509181821 | 75 | 35 | 0.0 | 0.0 | 0.00 | 0.07 | 0.07 | 92 | 1014.0 |
| 20260509181318 | 75 | 262 | 0.0 | 2.6 | 0.17 | 0.07 | 0.07 | 91 | 1013.9 |
| 20260509180815 | 76 | 16 | 0.0 | 0.9 | 0.24 | 0.07 | 0.07 | 91 | 1014.2 |
| 20260509180311 | 76 | 323 | 0.0 | 2.6 | 0.12 | 0.04 | 0.04 | 90 | 1014.1 |
| 20260509175808 | 76 | 312 | 0.0 | 0.0 | 0.00 | 0.02 | 0.02 | 90 | 1014.2 |
| 20260509175306 | 76 | 349 | 0.0 | 0.0 | 0.00 | 0.02 | 0.02 | 89 | 1014.1 |
| 20260509174800 | 77 | 274 | 0.0 | 0.0 | 0.00 | 0.02 | 0.02 | 89 | 1014.3 |
| 20260509174256 | 77 | 23 | 0.0 | 0.0 | 0.00 | 0.02 | 0.02 | 88 | 1014.0 |
| 20260509173752 | 78 | 24 | 0.0 | 0.9 | 0.07 | 0.02 | 0.02 | 85 | 1014.1 |
| 20260509173248 | 80 | 300 | 0.0 | 1.7 | 0.12 | 0.02 | 0.02 | 81 | 1014.3 |
| 20260509172744 | 82 | 30 | 0.0 | 0.9 | 0.05 | 0.01 | 0.01 | 76 | 1014.2 |
| 20260509172241 | 83 | 268 | 0.9 | 1.7 | 0.00 | 0.00 | 0.00 | 69 | 1014.0 |
| 20260509171736 | 84 | 271 | 0.9 | 0.9 | 0.00 | 0.00 | 0.00 | 68 | 1014.1 |
| 20260509171233 | 83 | 184 | 0.0 | 0.9 | 0.00 | 0.00 | 0.00 | 70 | 1014.2 |
| 20260509170730 | 84 | 269 | 0.9 | 1.7 | 0.00 | 0.00 | 0.00 | 69 | 1014.1 |
| 20260509170225 | 84 | 214 | 0.9 | 1.7 | 0.00 | 0.00 | 0.00 | 69 | 1014.3 |
| 20260509165724 | 83 | 161 | 0.0 | 0.9 | 0.00 | 0.00 | 0.00 | 70 | 1014.4 |
| 20260509165219 | 83 | 265 | 1.7 | 5.2 | 0.00 | 0.00 | 0.00 | 70 | 1014.2 |
| 20260509164715 | 83 | 215 | 0.9 | 1.7 | 0.00 | 0.00 | 0.00 | 70 | 1014.5 |
| 20260509164211 | 83 | 328 | 0.0 | 1.7 | 0.00 | 0.00 | 0.00 | 70 | 1014.6 |
| 20260509163709 | 83 | 251 | 0.0 | 1.7 | 0.00 | 0.00 | 0.00 | 72 | 1014.5 |
| 20260509163206 | 83 | 204 | 0.9 | 1.7 | 0.00 | 0.00 | 0.00 | 71 | 1014.6 |
| 20260509162703 | 83 | 144 | 0.9 | 1.7 | 0.00 | 0.00 | 0.00 | 71 | 1014.7 |
| 20260509162158 | 82 | 128 | 0.9 | 0.9 | 0.00 | 0.00 | 0.00 | 72 | 1014.3 |
| 20260509161654 | 83 | 252 | 1.7 | 2.6 | 0.00 | 0.00 | 0.00 | 71 | 1014.7 |
| 20260509161150 | 82 | 257 | 0.0 | 1.7 | 0.00 | 0.00 | 0.00 | 72 | 1014.6 |
| 20260509160646 | 83 | 329 | 0.9 | 1.7 | 0.00 | 0.00 | 0.00 | 71 | 1014.7 |
| 20260509160141 | 82 | 260 | 0.0 | 0.9 | 0.00 | 0.00 | 0.00 | 73 | 1014.6 |
| 20260509155638 | 82 | 318 | 0.0 | 0.9 | 0.00 | 0.00 | 0.00 | 73 | 1014.8 |
| 20260509155134 | 81 | 333 | 0.0 | 0.9 | 0.00 | 0.00 | 0.00 | 75 | 1014.6 |
| 20260509154630 | 80 | 250 | 0.0 | 1.7 | 0.00 | 0.00 | 0.00 | 76 | 1014.5 |
| 20260509154127 | 80 | 214 | 0.9 | 1.7 | 0.00 | 0.00 | 0.00 | 76 | 1014.4 |
| 20260509153624 | 80 | 246 | 0.9 | 1.7 | 0.00 | 0.00 | 0.00 | 77 | 1014.2 |
| 20260509153121 | 80 | 194 | 0.9 | 0.9 | 0.00 | 0.00 | 0.00 | 77 | 1014.0 |
| 20260509152617 | 80 | 10 | 0.0 | 0.0 | 0.00 | 0.00 | 0.00 | 77 | 1014.2 |
| 20260509152114 | 79 | 173 | 0.0 | 0.9 | 0.00 | 0.00 | 0.00 | 78 | 1014.4 |
| 20260509151610 | 79 | 169 | 0.0 | 0.9 | 0.00 | 0.00 | 0.00 | 79 | 1014.5 |
| 20260509151108 | 79 | 306 | 0.0 | 1.7 | 0.00 | 0.00 | 0.00 | 78 | 1014.2 |
| 20260509150606 | 79 | 299 | 0.0 | 0.0 | 0.00 | 0.00 | 0.00 | 79 | 1014.2 |